EDT,Max TemperatureF,Mean TemperatureF,Min TemperatureF,Max Dew PointF,MeanDew PointF,Min DewpointF,Max Humidity, Mean Humidity, Min Humidity, Max Sea Level PressureIn, Mean Sea Level PressureIn, Min Sea Level PressureIn, Max VisibilityMiles, Mean VisibilityMiles, Min VisibilityMiles, Max Wind SpeedMPH, Mean Wind SpeedMPH, Max Gust SpeedMPH,PrecipitationIn, CloudCover, Events, WindDirDegrees
2012-10-1,70,60,51,65,60,51,100,93,79,29.98,29.94,29.90,10,10,5,8,1,,0.00,5,,102
2012-10-2,84,74,65,80,74,65,100,96,80,29.96,29.91,29.87,10,10,5,14,5,18,0.01,6,,126
2012-10-3,85,80,75,77,76,75,100,92,71,30.14,30.07,29.96,10,10,10,7,4,,0.00,3,,187
2012-10-4,79,71,63,76,70,63,100,89,70,30.19,30.14,30.11,10,9,2,13,2,,0.00,3,,229
2012-10-5,81,68,55,67,62,55,100,82,47,30.17,30.11,30.02,10,8,0,6,1,,0.00,1,,160
2012-10-6,83,71,58,68,62,47,100,80,55,30.04,29.94,29.86,10,10,10,14,5,18,0.00,2,,223
2012-10-7,58,54,50,54,51,47,100,92,67,30.18,30.09,30.03,10,9,2,9,4,17,0.58,7,,356
2012-10-8,52,49,46,52,50,47,100,99,95,30.30,30.22,30.17,10,10,5,7,3,,0.11,7,,353
2012-10-9,58,54,51,59,55,51,100,100,100,30.17,30.13,30.08,10,6,1,8,5,,0.40,8,,340
2012-10-10,70,62,54,60,57,52,100,87,57,30.08,30.01,29.92,10,8,3,12,4,18,0.00,5,,260
2012-10-11,63,50,38,51,44,38,100,76,42,30.34,30.24,30.10,10,10,10,10,3,17,0.00,0,,332
2012-10-12,69,56,42,52,47,42,100,78,39,30.42,30.24,30.17,10,10,10,12,3,17,0.00,0,,315
2012-10-13,62,48,34,47,41,35,100,78,38,30.53,30.45,30.37,10,10,10,7,2,,0.00,0,,83
2012-10-14,75,60,45,62,56,45,100,82,56,30.36,30.20,30.02,10,10,10,13,4,18,0.00,1,,181
2012-10-15,73,65,57,66,63,57,100,91,74,30.02,29.84,29.71,10,10,3,17,7,25,0.07,4,,201
2012-10-16,66,55,44,57,49,44,100,77,51,29.95,29.89,29.82,10,10,10,13,5,17,0.00,0,,320
2012-10-17,69,54,40,57,51,40,100,86,57,30.04,29.98,29.94,10,10,4,7,2,,0.00,0,,149
2012-10-18,75,58,42,65,58,42,100,87,62,29.98,29.92,29.82,10,10,5,12,5,,0.00,2,,127
2012-10-19,77,70,62,71,65,48,100,89,57,29.79,29.73,29.66,10,9,2,13,4,16,0.04,4,,161
2012-10-20,70,60,49,52,49,46,90,69,45,29.93,29.80,29.73,10,10,10,8,4,,0.00,1,,234
2012-10-21,67,53,39,52,46,40,100,80,43,30.16,30.08,29.94,10,10,10,10,2,17,0.00,0,,312
2012-10-22,70,54,38,53,46,38,100,77,41,30.25,30.19,30.15,10,10,7,8,1,,0.00,0,,269
2012-10-23,79,61,43,61,53,43,100,77,39,30.19,30.13,30.08,10,10,7,8,2,,0.00,0,,166
2012-10-24,81,68,56,65,59,54,100,81,49,30.16,30.12,30.08,10,10,7,8,3,,0.00,0,,215
2012-10-25,77,64,51,67,61,52,100,92,65,30.22,30.17,30.14,10,8,0,10,3,,0.00,3,,86
2012-10-26,71,68,64,66,65,63,100,93,80,30.19,30.11,30.02,10,9,5,12,5,16,0.00,7,,47
2012-10-27,67,64,60,63,61,58,100,91,82,30.00,29.88,29.78,10,10,10,14,7,21,0.00,5,,30
2012-10-28,60,58,55,59,57,55,100,98,88,29.79,29.63,29.48,10,8,5,13,9,25,0.92,8,,360
2012-10-29,56,50,43,56,51,44,100,100,100,29.47,29.25,28.95,10,5,2,30,13,38,2.80,8,,307
2012-10-30,46,44,41,44,42,39,100,95,81,29.53,29.31,29.00,10,9,5,24,16,36,0.27,8,,213
2012-10-31,55,48,40,44,41,39,95,79,62,29.70,29.61,29.52,10,10,10,12,7,17,0.00,2,,227